sensor_id;sensor_type;location;lat;lon;timestamp;P1;durP1;ratioP1;P2;durP2;ratioP2
10013;SDS011;45684;48.358;10.746;2024-01-30T00:00:22;37.60;;;35.10;;
10013;SDS011;45684;48.358;10.746;2024-01-30T00:02:50;36.00;;;33.70;;
10013;SDS011;45684;48.358;10.746;2024-01-30T00:05:18;35.53;;;33.13;;
10013;SDS011;45684;48.358;10.746;2024-01-30T00:07:47;35.03;;;32.60;;
10013;SDS011;45684;48.358;10.746;2024-01-30T00:10:15;32.90;;;30.43;;
10013;SDS011;45684;48.358;10.746;2024-01-30T00:12:44;33.43;;;31.17;;
10013;SDS011;45684;48.358;10.746;2024-01-30T00:15:12;31.43;;;29.13;;
10013;SDS011;45684;48.358;10.746;2024-01-30T00:17:40;33.20;;;31.03;;
10013;SDS011;45684;48.358;10.746;2024-01-30T00:20:08;34.17;;;31.77;;
10013;SDS011;45684;48.358;10.746;2024-01-30T00:22:37;32.43;;;30.23;;
10013;SDS011;45684;48.358;10.746;2024-01-30T00:25:07;31.83;;;29.63;;
10013;SDS011;45684;48.358;10.746;2024-01-30T00:27:36;34.70;;;32.50;;
10013;SDS011;45684;48.358;10.746;2024-01-30T00:30:04;32.27;;;29.87;;
10013;SDS011;45684;48.358;10.746;2024-01-30T00:32:33;34.27;;;31.87;;
10013;SDS011;45684;48.358;10.746;2024-01-30T00:35:01;33.57;;;31.37;;
10013;SDS011;45684;48.358;10.746;2024-01-30T00:37:29;30.80;;;28.70;;
10013;SDS011;45684;48.358;10.746;2024-01-30T00:39:58;25.00;;;23.30;;
10013;SDS011;45684;48.358;10.746;2024-01-30T00:42:27;24.37;;;22.53;;
10013;SDS011;45684;48.358;10.746;2024-01-30T00:44:55;25.37;;;23.57;;
10013;SDS011;45684;48.358;10.746;2024-01-30T00:47:23;25.57;;;23.77;;
10013;SDS011;45684;48.358;10.746;2024-01-30T00:49:51;28.80;;;26.63;;
10013;SDS011;45684;48.358;10.746;2024-01-30T00:52:19;26.60;;;24.47;;
10013;SDS011;45684;48.358;10.746;2024-01-30T00:54:47;27.30;;;25.40;;
10013;SDS011;45684;48.358;10.746;2024-01-30T00:57:15;26.37;;;24.50;;
10013;SDS011;45684;48.358;10.746;2024-01-30T00:59:44;28.17;;;26.17;;
10013;SDS011;45684;48.358;10.746;2024-01-30T01:02:12;25.47;;;23.63;;
10013;SDS011;45684;48.358;10.746;2024-01-30T01:04:41;28.47;;;26.47;;
10013;SDS011;45684;48.358;10.746;2024-01-30T01:07:09;27.50;;;25.67;;
10013;SDS011;45684;48.358;10.746;2024-01-30T01:09:38;28.00;;;26.00;;
10013;SDS011;45684;48.358;10.746;2024-01-30T01:12:06;27.37;;;25.57;;
10013;SDS011;45684;48.358;10.746;2024-01-30T01:14:34;31.33;;;29.37;;
10013;SDS011;45684;48.358;10.746;2024-01-30T01:17:04;29.70;;;27.80;;
10013;SDS011;45684;48.358;10.746;2024-01-30T01:19:32;30.70;;;28.70;;
10013;SDS011;45684;48.358;10.746;2024-01-30T01:22:00;28.07;;;26.10;;
10013;SDS011;45684;48.358;10.746;2024-01-30T01:24:27;30.37;;;28.30;;
10013;SDS011;45684;48.358;10.746;2024-01-30T01:26:55;35.17;;;32.87;;
10013;SDS011;45684;48.358;10.746;2024-01-30T01:29:23;29.80;;;27.90;;
10013;SDS011;45684;48.358;10.746;2024-01-30T01:31:55;31.27;;;29.23;;
10013;SDS011;45684;48.358;10.746;2024-01-30T01:34:24;29.27;;;27.37;;
10013;SDS011;45684;48.358;10.746;2024-01-30T01:36:56;31.63;;;29.37;;
10013;SDS011;45684;48.358;10.746;2024-01-30T01:39:24;28.03;;;26.13;;
10013;SDS011;45684;48.358;10.746;2024-01-30T01:41:52;32.33;;;29.93;;
10013;SDS011;45684;48.358;10.746;2024-01-30T01:44:20;29.27;;;27.27;;
10013;SDS011;45684;48.358;10.746;2024-01-30T01:46:48;29.80;;;27.97;;
10013;SDS011;45684;48.358;10.746;2024-01-30T01:49:16;24.70;;;23.00;;
10013;SDS011;45684;48.358;10.746;2024-01-30T01:51:47;30.33;;;28.33;;
10013;SDS011;45684;48.358;10.746;2024-01-30T01:54:16;24.93;;;23.20;;
10013;SDS011;45684;48.358;10.746;2024-01-30T01:56:44;23.80;;;22.13;;
10013;SDS011;45684;48.358;10.746;2024-01-30T01:59:12;26.43;;;24.57;;
10013;SDS011;45684;48.358;10.746;2024-01-30T02:01:40;22.53;;;21.00;;
10013;SDS011;45684;48.358;10.746;2024-01-30T02:04:09;23.83;;;22.23;;
10013;SDS011;45684;48.358;10.746;2024-01-30T02:06:37;25.37;;;23.63;;
10013;SDS011;45684;48.358;10.746;2024-01-30T02:09:07;22.50;;;20.87;;
10013;SDS011;45684;48.358;10.746;2024-01-30T02:11:36;24.70;;;22.97;;
10013;SDS011;45684;48.358;10.746;2024-01-30T02:14:04;23.83;;;22.23;;
10013;SDS011;45684;48.358;10.746;2024-01-30T02:16:32;23.17;;;21.60;;
10013;SDS011;45684;48.358;10.746;2024-01-30T02:19:00;28.50;;;26.70;;
10013;SDS011;45684;48.358;10.746;2024-01-30T02:21:30;25.70;;;23.70;;
10013;SDS011;45684;48.358;10.746;2024-01-30T02:23:57;28.50;;;26.60;;
10013;SDS011;45684;48.358;10.746;2024-01-30T02:26:27;23.93;;;22.33;;
10013;SDS011;45684;48.358;10.746;2024-01-30T02:28:55;31.23;;;29.23;;
10013;SDS011;45684;48.358;10.746;2024-01-30T02:31:24;20.87;;;19.33;;
10013;SDS011;45684;48.358;10.746;2024-01-30T02:33:52;20.90;;;19.13;;
10013;SDS011;45684;48.358;10.746;2024-01-30T02:36:20;28.40;;;26.43;;
10013;SDS011;45684;48.358;10.746;2024-01-30T02:38:49;21.17;;;19.53;;
10013;SDS011;45684;48.358;10.746;2024-01-30T02:41:17;20.70;;;19.17;;
10013;SDS011;45684;48.358;10.746;2024-01-30T02:43:45;21.67;;;20.10;;
10013;SDS011;45684;48.358;10.746;2024-01-30T02:46:13;23.10;;;21.37;;
10013;SDS011;45684;48.358;10.746;2024-01-30T02:48:41;24.30;;;22.50;;
10013;SDS011;45684;48.358;10.746;2024-01-30T02:51:09;22.10;;;20.60;;
10013;SDS011;45684;48.358;10.746;2024-01-30T02:53:37;20.63;;;19.03;;
10013;SDS011;45684;48.358;10.746;2024-01-30T02:56:06;23.37;;;21.77;;
10013;SDS011;45684;48.358;10.746;2024-01-30T02:58:36;24.40;;;22.67;;
10013;SDS011;45684;48.358;10.746;2024-01-30T03:01:04;21.37;;;19.93;;
10013;SDS011;45684;48.358;10.746;2024-01-30T03:03:32;28.53;;;26.63;;
10013;SDS011;45684;48.358;10.746;2024-01-30T03:06:01;22.80;;;21.10;;
10013;SDS011;45684;48.358;10.746;2024-01-30T03:08:29;28.57;;;26.57;;
10013;SDS011;45684;48.358;10.746;2024-01-30T03:10:57;23.67;;;21.97;;
10013;SDS011;45684;48.358;10.746;2024-01-30T03:13:26;26.60;;;24.70;;
10013;SDS011;45684;48.358;10.746;2024-01-30T03:15:54;25.73;;;23.93;;
10013;SDS011;45684;48.358;10.746;2024-01-30T03:18:22;21.90;;;20.40;;
10013;SDS011;45684;48.358;10.746;2024-01-30T03:20:50;24.13;;;22.63;;
10013;SDS011;45684;48.358;10.746;2024-01-30T03:23:18;23.13;;;21.43;;
10013;SDS011;45684;48.358;10.746;2024-01-30T03:25:46;23.97;;;22.17;;
10013;SDS011;45684;48.358;10.746;2024-01-30T03:28:14;25.97;;;24.27;;
10013;SDS011;45684;48.358;10.746;2024-01-30T03:30:43;24.27;;;22.63;;
10013;SDS011;45684;48.358;10.746;2024-01-30T03:33:11;22.70;;;21.20;;
10013;SDS011;45684;48.358;10.746;2024-01-30T03:35:39;20.67;;;19.07;;
10013;SDS011;45684;48.358;10.746;2024-01-30T03:38:07;20.53;;;19.10;;
10013;SDS011;45684;48.358;10.746;2024-01-30T03:40:35;24.17;;;22.60;;
10013;SDS011;45684;48.358;10.746;2024-01-30T03:43:03;19.63;;;18.30;;
10013;SDS011;45684;48.358;10.746;2024-01-30T03:45:31;22.13;;;20.63;;
10013;SDS011;45684;48.358;10.746;2024-01-30T03:48:00;25.70;;;24.00;;
10013;SDS011;45684;48.358;10.746;2024-01-30T03:50:28;19.67;;;18.37;;
10013;SDS011;45684;48.358;10.746;2024-01-30T03:52:56;25.27;;;23.47;;
10013;SDS011;45684;48.358;10.746;2024-01-30T03:55:24;20.20;;;18.80;;
10013;SDS011;45684;48.358;10.746;2024-01-30T03:57:52;27.00;;;25.27;;
10013;SDS011;45684;48.358;10.746;2024-01-30T04:00:20;30.43;;;28.60;;
10013;SDS011;45684;48.358;10.746;2024-01-30T04:02:48;26.87;;;25.17;;
10013;SDS011;45684;48.358;10.746;2024-01-30T04:05:18;25.97;;;24.37;;
10013;SDS011;45684;48.358;10.746;2024-01-30T04:07:46;26.80;;;24.90;;
10013;SDS011;45684;48.358;10.746;2024-01-30T04:10:14;20.67;;;19.27;;
10013;SDS011;45684;48.358;10.746;2024-01-30T04:12:42;21.90;;;20.17;;
10013;SDS011;45684;48.358;10.746;2024-01-30T04:15:10;26.23;;;24.67;;
10013;SDS011;45684;48.358;10.746;2024-01-30T04:17:39;31.67;;;29.53;;
10013;SDS011;45684;48.358;10.746;2024-01-30T04:20:08;32.90;;;31.03;;
10013;SDS011;45684;48.358;10.746;2024-01-30T04:22:41;44.03;;;41.83;;
10013;SDS011;45684;48.358;10.746;2024-01-30T04:25:09;41.13;;;38.93;;
10013;SDS011;45684;48.358;10.746;2024-01-30T04:27:37;37.40;;;35.37;;
10013;SDS011;45684;48.358;10.746;2024-01-30T04:30:05;40.03;;;37.70;;
10013;SDS011;45684;48.358;10.746;2024-01-30T04:32:34;38.07;;;36.13;;
10013;SDS011;45684;48.358;10.746;2024-01-30T04:35:03;42.40;;;40.13;;
10013;SDS011;45684;48.358;10.746;2024-01-30T04:37:36;46.73;;;44.30;;
10013;SDS011;45684;48.358;10.746;2024-01-30T04:40:07;44.07;;;41.83;;
10013;SDS011;45684;48.358;10.746;2024-01-30T04:42:36;45.57;;;43.20;;
10013;SDS011;45684;48.358;10.746;2024-01-30T04:45:05;60.37;;;57.37;;
10013;SDS011;45684;48.358;10.746;2024-01-30T04:47:33;57.17;;;54.47;;
10013;SDS011;45684;48.358;10.746;2024-01-30T04:50:01;71.97;;;68.57;;
10013;SDS011;45684;48.358;10.746;2024-01-30T04:52:31;61.67;;;58.77;;
10013;SDS011;45684;48.358;10.746;2024-01-30T04:54:59;67.30;;;64.00;;
10013;SDS011;45684;48.358;10.746;2024-01-30T04:57:28;73.67;;;70.13;;
10013;SDS011;45684;48.358;10.746;2024-01-30T04:59:57;69.20;;;65.90;;
10013;SDS011;45684;48.358;10.746;2024-01-30T05:02:25;81.83;;;78.10;;
10013;SDS011;45684;48.358;10.746;2024-01-30T05:04:53;65.27;;;62.20;;
10013;SDS011;45684;48.358;10.746;2024-01-30T05:07:20;64.60;;;61.63;;
10013;SDS011;45684;48.358;10.746;2024-01-30T05:09:49;66.43;;;63.27;;
10013;SDS011;45684;48.358;10.746;2024-01-30T05:12:16;65.30;;;62.23;;
10013;SDS011;45684;48.358;10.746;2024-01-30T05:14:46;65.20;;;62.10;;
10013;SDS011;45684;48.358;10.746;2024-01-30T05:17:14;67.33;;;64.07;;
10013;SDS011;45684;48.358;10.746;2024-01-30T05:19:42;61.53;;;58.43;;
10013;SDS011;45684;48.358;10.746;2024-01-30T05:22:11;57.20;;;54.30;;
10013;SDS011;45684;48.358;10.746;2024-01-30T05:24:41;44.20;;;41.77;;
10013;SDS011;45684;48.358;10.746;2024-01-30T05:27:09;54.57;;;51.90;;
10013;SDS011;45684;48.358;10.746;2024-01-30T05:29:39;51.03;;;48.57;;
10013;SDS011;45684;48.358;10.746;2024-01-30T05:32:09;44.03;;;41.70;;
10013;SDS011;45684;48.358;10.746;2024-01-30T05:34:37;44.77;;;42.50;;
10013;SDS011;45684;48.358;10.746;2024-01-30T05:37:05;36.50;;;34.53;;
10013;SDS011;45684;48.358;10.746;2024-01-30T05:39:33;49.80;;;47.20;;
10013;SDS011;45684;48.358;10.746;2024-01-30T05:42:02;42.80;;;40.50;;
10013;SDS011;45684;48.358;10.746;2024-01-30T05:44:30;37.93;;;35.87;;
10013;SDS011;45684;48.358;10.746;2024-01-30T05:46:58;42.63;;;40.40;;
10013;SDS011;45684;48.358;10.746;2024-01-30T05:49:27;49.90;;;47.40;;
10013;SDS011;45684;48.358;10.746;2024-01-30T05:51:55;38.03;;;36.10;;
10013;SDS011;45684;48.358;10.746;2024-01-30T05:54:23;40.50;;;38.13;;
10013;SDS011;45684;48.358;10.746;2024-01-30T05:56:51;27.60;;;25.90;;
10013;SDS011;45684;48.358;10.746;2024-01-30T05:59:18;39.13;;;37.00;;
10013;SDS011;45684;48.358;10.746;2024-01-30T06:01:46;24.73;;;23.23;;
10013;SDS011;45684;48.358;10.746;2024-01-30T06:04:15;22.57;;;21.17;;
10013;SDS011;45684;48.358;10.746;2024-01-30T06:06:44;25.50;;;23.97;;
10013;SDS011;45684;48.358;10.746;2024-01-30T06:09:12;26.93;;;25.43;;
10013;SDS011;45684;48.358;10.746;2024-01-30T06:11:41;24.00;;;22.60;;
10013;SDS011;45684;48.358;10.746;2024-01-30T06:14:08;21.47;;;20.07;;
10013;SDS011;45684;48.358;10.746;2024-01-30T06:16:36;29.80;;;28.17;;
10013;SDS011;45684;48.358;10.746;2024-01-30T06:19:04;32.30;;;30.50;;
10013;SDS011;45684;48.358;10.746;2024-01-30T06:21:32;36.33;;;34.47;;
10013;SDS011;45684;48.358;10.746;2024-01-30T06:24:04;29.93;;;28.30;;
10013;SDS011;45684;48.358;10.746;2024-01-30T06:26:33;29.47;;;27.83;;
10013;SDS011;45684;48.358;10.746;2024-01-30T06:29:01;29.07;;;27.47;;
10013;SDS011;45684;48.358;10.746;2024-01-30T06:31:29;30.80;;;29.23;;
10013;SDS011;45684;48.358;10.746;2024-01-30T06:33:57;26.90;;;25.37;;
10013;SDS011;45684;48.358;10.746;2024-01-30T06:36:25;27.20;;;25.73;;
10013;SDS011;45684;48.358;10.746;2024-01-30T06:38:53;27.93;;;26.33;;
10013;SDS011;45684;48.358;10.746;2024-01-30T06:41:22;26.83;;;25.33;;
10013;SDS011;45684;48.358;10.746;2024-01-30T06:43:50;32.40;;;30.67;;
10013;SDS011;45684;48.358;10.746;2024-01-30T06:46:18;34.27;;;32.20;;
10013;SDS011;45684;48.358;10.746;2024-01-30T06:48:46;39.67;;;37.63;;
10013;SDS011;45684;48.358;10.746;2024-01-30T06:51:14;24.40;;;22.90;;
10013;SDS011;45684;48.358;10.746;2024-01-30T06:53:43;30.13;;;28.47;;
10013;SDS011;45684;48.358;10.746;2024-01-30T06:56:11;27.73;;;26.03;;
10013;SDS011;45684;48.358;10.746;2024-01-30T06:58:40;29.80;;;28.03;;
10013;SDS011;45684;48.358;10.746;2024-01-30T07:01:08;42.27;;;39.97;;
10013;SDS011;45684;48.358;10.746;2024-01-30T07:03:37;43.63;;;41.47;;
10013;SDS011;45684;48.358;10.746;2024-01-30T07:06:04;48.93;;;46.43;;
10013;SDS011;45684;48.358;10.746;2024-01-30T07:08:33;38.73;;;36.83;;
10013;SDS011;45684;48.358;10.746;2024-01-30T07:11:00;48.10;;;45.63;;
10013;SDS011;45684;48.358;10.746;2024-01-30T07:13:28;37.03;;;35.17;;
10013;SDS011;45684;48.358;10.746;2024-01-30T07:15:58;31.57;;;29.83;;
10013;SDS011;45684;48.358;10.746;2024-01-30T07:18:26;40.00;;;38.07;;
10013;SDS011;45684;48.358;10.746;2024-01-30T07:20:54;48.00;;;45.47;;
10013;SDS011;45684;48.358;10.746;2024-01-30T07:23:22;38.87;;;36.90;;
10013;SDS011;45684;48.358;10.746;2024-01-30T07:25:50;40.77;;;38.80;;
10013;SDS011;45684;48.358;10.746;2024-01-30T07:28:18;56.50;;;53.73;;
10013;SDS011;45684;48.358;10.746;2024-01-30T07:30:46;45.43;;;43.27;;
10013;SDS011;45684;48.358;10.746;2024-01-30T07:33:16;57.90;;;55.17;;
10013;SDS011;45684;48.358;10.746;2024-01-30T07:35:45;39.30;;;37.33;;
10013;SDS011;45684;48.358;10.746;2024-01-30T07:38:13;44.43;;;42.07;;
10013;SDS011;45684;48.358;10.746;2024-01-30T07:40:41;41.43;;;39.23;;
10013;SDS011;45684;48.358;10.746;2024-01-30T07:43:09;47.77;;;45.37;;
10013;SDS011;45684;48.358;10.746;2024-01-30T07:45:37;49.07;;;46.73;;
10013;SDS011;45684;48.358;10.746;2024-01-30T07:48:05;52.63;;;49.90;;
10013;SDS011;45684;48.358;10.746;2024-01-30T07:50:35;53.07;;;50.50;;
10013;SDS011;45684;48.358;10.746;2024-01-30T07:53:03;62.03;;;59.13;;
10013;SDS011;45684;48.358;10.746;2024-01-30T07:55:31;52.80;;;50.20;;
10013;SDS011;45684;48.358;10.746;2024-01-30T07:57:59;72.37;;;68.83;;
10013;SDS011;45684;48.358;10.746;2024-01-30T08:00:27;64.00;;;60.70;;
10013;SDS011;45684;48.358;10.746;2024-01-30T08:02:56;51.87;;;49.07;;
10013;SDS011;45684;48.358;10.746;2024-01-30T08:05:25;60.37;;;57.40;;
10013;SDS011;45684;48.358;10.746;2024-01-30T08:07:54;70.07;;;66.53;;
10013;SDS011;45684;48.358;10.746;2024-01-30T08:10:22;69.00;;;65.77;;
10013;SDS011;45684;48.358;10.746;2024-01-30T08:12:50;86.70;;;82.63;;
10013;SDS011;45684;48.358;10.746;2024-01-30T08:15:18;102.63;;;98.03;;
10013;SDS011;45684;48.358;10.746;2024-01-30T08:17:46;139.80;;;133.80;;
10013;SDS011;45684;48.358;10.746;2024-01-30T08:20:14;153.83;;;147.13;;
10013;SDS011;45684;48.358;10.746;2024-01-30T08:22:43;145.57;;;139.43;;
10013;SDS011;45684;48.358;10.746;2024-01-30T08:25:12;198.60;;;189.60;;
10013;SDS011;45684;48.358;10.746;2024-01-30T08:27:40;204.00;;;194.50;;
10013;SDS011;45684;48.358;10.746;2024-01-30T08:30:08;179.83;;;171.63;;
10013;SDS011;45684;48.358;10.746;2024-01-30T08:32:37;161.23;;;154.13;;
10013;SDS011;45684;48.358;10.746;2024-01-30T08:35:05;151.17;;;144.57;;
10013;SDS011;45684;48.358;10.746;2024-01-30T08:37:33;166.90;;;159.70;;
10013;SDS011;45684;48.358;10.746;2024-01-30T08:40:01;157.93;;;151.23;;
10013;SDS011;45684;48.358;10.746;2024-01-30T08:42:32;148.47;;;142.43;;
10013;SDS011;45684;48.358;10.746;2024-01-30T08:45:00;132.77;;;127.30;;
10013;SDS011;45684;48.358;10.746;2024-01-30T08:47:28;136.47;;;130.93;;
10013;SDS011;45684;48.358;10.746;2024-01-30T08:49:56;124.40;;;119.27;;
10013;SDS011;45684;48.358;10.746;2024-01-30T08:52:24;141.50;;;135.97;;
10013;SDS011;45684;48.358;10.746;2024-01-30T08:54:53;129.93;;;124.63;;
10013;SDS011;45684;48.358;10.746;2024-01-30T08:57:21;152.30;;;146.20;;
10013;SDS011;45684;48.358;10.746;2024-01-30T08:59:50;163.20;;;156.93;;
10013;SDS011;45684;48.358;10.746;2024-01-30T09:02:20;171.33;;;164.60;;
10013;SDS011;45684;48.358;10.746;2024-01-30T09:04:48;170.53;;;163.87;;
10013;SDS011;45684;48.358;10.746;2024-01-30T09:07:16;193.20;;;185.57;;
10013;SDS011;45684;48.358;10.746;2024-01-30T09:09:44;169.17;;;162.07;;
10013;SDS011;45684;48.358;10.746;2024-01-30T09:12:12;224.37;;;214.37;;
10013;SDS011;45684;48.358;10.746;2024-01-30T09:14:41;252.87;;;242.13;;
10013;SDS011;45684;48.358;10.746;2024-01-30T09:17:10;217.83;;;208.57;;
10013;SDS011;45684;48.358;10.746;2024-01-30T09:19:38;218.70;;;209.23;;
10013;SDS011;45684;48.358;10.746;2024-01-30T09:22:06;260.37;;;249.27;;
10013;SDS011;45684;48.358;10.746;2024-01-30T09:24:34;252.70;;;241.73;;
10013;SDS011;45684;48.358;10.746;2024-01-30T09:27:02;335.73;;;319.63;;
10013;SDS011;45684;48.358;10.746;2024-01-30T09:29:30;249.97;;;237.37;;
10013;SDS011;45684;48.358;10.746;2024-01-30T09:32:00;150.80;;;143.60;;
10013;SDS011;45684;48.358;10.746;2024-01-30T09:34:29;135.20;;;129.40;;
10013;SDS011;45684;48.358;10.746;2024-01-30T09:36:58;152.03;;;145.13;;
10013;SDS011;45684;48.358;10.746;2024-01-30T09:39:26;156.13;;;148.67;;
10013;SDS011;45684;48.358;10.746;2024-01-30T09:41:55;150.73;;;143.27;;
10013;SDS011;45684;48.358;10.746;2024-01-30T09:44:28;123.50;;;118.07;;
10013;SDS011;45684;48.358;10.746;2024-01-30T09:46:57;99.43;;;95.10;;
10013;SDS011;45684;48.358;10.746;2024-01-30T09:49:31;71.27;;;67.77;;
10013;SDS011;45684;48.358;10.746;2024-01-30T09:52:00;136.83;;;130.30;;
10013;SDS011;45684;48.358;10.746;2024-01-30T09:54:30;130.97;;;124.73;;
10013;SDS011;45684;48.358;10.746;2024-01-30T09:57:02;116.83;;;111.43;;
10013;SDS011;45684;48.358;10.746;2024-01-30T09:59:30;104.07;;;98.93;;
10013;SDS011;45684;48.358;10.746;2024-01-30T10:01:58;188.80;;;180.80;;
10013;SDS011;45684;48.358;10.746;2024-01-30T10:04:27;190.50;;;182.60;;
10013;SDS011;45684;48.358;10.746;2024-01-30T10:06:56;172.10;;;164.67;;
10013;SDS011;45684;48.358;10.746;2024-01-30T10:09:25;165.10;;;157.80;;
10013;SDS011;45684;48.358;10.746;2024-01-30T10:11:53;160.90;;;153.70;;
10013;SDS011;45684;48.358;10.746;2024-01-30T10:14:21;141.77;;;135.43;;
10013;SDS011;45684;48.358;10.746;2024-01-30T10:16:49;123.73;;;118.10;;
10013;SDS011;45684;48.358;10.746;2024-01-30T10:19:17;90.40;;;85.87;;
10013;SDS011;45684;48.358;10.746;2024-01-30T10:21:46;99.93;;;95.43;;
10013;SDS011;45684;48.358;10.746;2024-01-30T10:24:16;80.73;;;77.13;;
10013;SDS011;45684;48.358;10.746;2024-01-30T10:26:44;104.47;;;99.67;;
10013;SDS011;45684;48.358;10.746;2024-01-30T10:29:12;89.90;;;85.90;;
10013;SDS011;45684;48.358;10.746;2024-01-30T10:31:40;121.17;;;116.10;;
10013;SDS011;45684;48.358;10.746;2024-01-30T10:34:08;148.33;;;142.40;;
10013;SDS011;45684;48.358;10.746;2024-01-30T10:36:48;169.97;;;163.20;;
10013;SDS011;45684;48.358;10.746;2024-01-30T10:39:19;203.60;;;195.50;;
10013;SDS011;45684;48.358;10.746;2024-01-30T10:41:50;236.17;;;226.90;;
10013;SDS011;45684;48.358;10.746;2024-01-30T10:44:23;223.77;;;215.17;;
10013;SDS011;45684;48.358;10.746;2024-01-30T10:46:54;261.20;;;251.10;;
10013;SDS011;45684;48.358;10.746;2024-01-30T10:49:28;332.23;;;318.30;;
10013;SDS011;45684;48.358;10.746;2024-01-30T10:51:56;320.93;;;307.07;;
10013;SDS011;45684;48.358;10.746;2024-01-30T10:54:27;334.50;;;320.27;;
10013;SDS011;45684;48.358;10.746;2024-01-30T10:56:56;291.20;;;279.27;;
10013;SDS011;45684;48.358;10.746;2024-01-30T10:59:28;283.63;;;272.17;;
10013;SDS011;45684;48.358;10.746;2024-01-30T11:01:57;171.20;;;164.57;;
10013;SDS011;45684;48.358;10.746;2024-01-30T11:04:26;111.70;;;107.03;;
10013;SDS011;45684;48.358;10.746;2024-01-30T11:06:54;70.77;;;67.80;;
10013;SDS011;45684;48.358;10.746;2024-01-30T11:09:22;79.97;;;76.60;;
10013;SDS011;45684;48.358;10.746;2024-01-30T11:11:52;50.77;;;48.57;;
10013;SDS011;45684;48.358;10.746;2024-01-30T11:14:26;15.50;;;14.60;;
10013;SDS011;45684;48.358;10.746;2024-01-30T11:16:57;13.70;;;13.00;;
10013;SDS011;45684;48.358;10.746;2024-01-30T11:19:25;12.40;;;11.70;;
10013;SDS011;45684;48.358;10.746;2024-01-30T11:21:55;12.20;;;11.50;;
10013;SDS011;45684;48.358;10.746;2024-01-30T11:24:24;13.30;;;12.60;;
10013;SDS011;45684;48.358;10.746;2024-01-30T11:26:56;10.33;;;9.73;;
10013;SDS011;45684;48.358;10.746;2024-01-30T11:29:25;11.90;;;11.10;;
10013;SDS011;45684;48.358;10.746;2024-01-30T11:31:55;10.80;;;10.10;;
10013;SDS011;45684;48.358;10.746;2024-01-30T11:34:24;10.63;;;9.87;;
10013;SDS011;45684;48.358;10.746;2024-01-30T11:36:53;14.17;;;13.37;;
10013;SDS011;45684;48.358;10.746;2024-01-30T11:39:26;18.23;;;17.33;;
10013;SDS011;45684;48.358;10.746;2024-01-30T11:41:54;16.17;;;15.37;;
10013;SDS011;45684;48.358;10.746;2024-01-30T11:44:24;15.57;;;14.67;;
10013;SDS011;45684;48.358;10.746;2024-01-30T11:46:52;15.20;;;14.40;;
10013;SDS011;45684;48.358;10.746;2024-01-30T11:49:20;9.47;;;8.97;;
10013;SDS011;45684;48.358;10.746;2024-01-30T11:51:48;9.17;;;8.57;;
10013;SDS011;45684;48.358;10.746;2024-01-30T11:54:16;6.60;;;6.20;;
10013;SDS011;45684;48.358;10.746;2024-01-30T11:56:44;6.33;;;5.93;;
10013;SDS011;45684;48.358;10.746;2024-01-30T11:59:12;6.43;;;5.93;;
10013;SDS011;45684;48.358;10.746;2024-01-30T12:01:42;6.90;;;6.40;;
10013;SDS011;45684;48.358;10.746;2024-01-30T12:04:11;6.20;;;5.70;;
10013;SDS011;45684;48.358;10.746;2024-01-30T12:06:39;6.80;;;6.30;;
10013;SDS011;45684;48.358;10.746;2024-01-30T12:09:08;7.13;;;6.60;;
10013;SDS011;45684;48.358;10.746;2024-01-30T12:11:45;7.40;;;6.90;;
10013;SDS011;45684;48.358;10.746;2024-01-30T12:14:14;7.23;;;6.63;;
10013;SDS011;45684;48.358;10.746;2024-01-30T12:16:47;8.50;;;7.87;;
10013;SDS011;45684;48.358;10.746;2024-01-30T12:19:21;6.90;;;6.37;;
10013;SDS011;45684;48.358;10.746;2024-01-30T12:21:53;8.23;;;7.57;;
10013;SDS011;45684;48.358;10.746;2024-01-30T12:24:23;8.03;;;7.43;;
10013;SDS011;45684;48.358;10.746;2024-01-30T12:26:51;8.27;;;7.67;;
10013;SDS011;45684;48.358;10.746;2024-01-30T12:29:19;7.33;;;6.77;;
10013;SDS011;45684;48.358;10.746;2024-01-30T12:31:52;7.20;;;6.70;;
10013;SDS011;45684;48.358;10.746;2024-01-30T12:34:20;7.20;;;6.70;;
10013;SDS011;45684;48.358;10.746;2024-01-30T12:36:49;7.40;;;6.70;;
10013;SDS011;45684;48.358;10.746;2024-01-30T12:39:17;6.93;;;6.43;;
10013;SDS011;45684;48.358;10.746;2024-01-30T12:41:45;6.60;;;6.10;;
10013;SDS011;45684;48.358;10.746;2024-01-30T12:44:13;7.33;;;6.83;;
10013;SDS011;45684;48.358;10.746;2024-01-30T12:46:42;7.03;;;6.33;;
10013;SDS011;45684;48.358;10.746;2024-01-30T12:49:13;6.93;;;6.43;;
10013;SDS011;45684;48.358;10.746;2024-01-30T12:51:42;7.70;;;7.10;;
10013;SDS011;45684;48.358;10.746;2024-01-30T12:54:12;8.70;;;8.00;;
10013;SDS011;45684;48.358;10.746;2024-01-30T12:56:40;8.13;;;7.50;;
10013;SDS011;45684;48.358;10.746;2024-01-30T12:59:08;8.03;;;7.33;;
10013;SDS011;45684;48.358;10.746;2024-01-30T13:01:36;7.47;;;6.80;;
10013;SDS011;45684;48.358;10.746;2024-01-30T13:04:04;8.57;;;7.00;;
10013;SDS011;45684;48.358;10.746;2024-01-30T13:06:33;6.57;;;6.07;;
10013;SDS011;45684;48.358;10.746;2024-01-30T13:09:01;7.30;;;6.77;;
10013;SDS011;45684;48.358;10.746;2024-01-30T13:11:29;7.13;;;6.53;;
10013;SDS011;45684;48.358;10.746;2024-01-30T13:13:58;7.40;;;6.70;;
10013;SDS011;45684;48.358;10.746;2024-01-30T13:16:26;6.90;;;6.50;;
10013;SDS011;45684;48.358;10.746;2024-01-30T13:18:54;6.80;;;6.30;;
10013;SDS011;45684;48.358;10.746;2024-01-30T13:21:22;6.87;;;6.23;;
10013;SDS011;45684;48.358;10.746;2024-01-30T13:23:51;6.90;;;6.40;;
10013;SDS011;45684;48.358;10.746;2024-01-30T13:26:20;6.87;;;6.37;;
10013;SDS011;45684;48.358;10.746;2024-01-30T13:28:49;7.67;;;7.07;;
10013;SDS011;45684;48.358;10.746;2024-01-30T13:31:17;6.80;;;6.30;;
10013;SDS011;45684;48.358;10.746;2024-01-30T13:33:45;8.50;;;7.80;;
10013;SDS011;45684;48.358;10.746;2024-01-30T13:36:15;7.37;;;6.87;;
10013;SDS011;45684;48.358;10.746;2024-01-30T13:38:43;7.50;;;6.87;;
10013;SDS011;45684;48.358;10.746;2024-01-30T13:41:12;6.80;;;6.20;;
10013;SDS011;45684;48.358;10.746;2024-01-30T13:43:40;6.83;;;6.33;;
10013;SDS011;45684;48.358;10.746;2024-01-30T13:46:08;7.00;;;6.40;;
10013;SDS011;45684;48.358;10.746;2024-01-30T13:48:36;6.70;;;6.20;;
10013;SDS011;45684;48.358;10.746;2024-01-30T13:51:04;7.07;;;6.57;;
10013;SDS011;45684;48.358;10.746;2024-01-30T13:53:33;7.33;;;6.83;;
10013;SDS011;45684;48.358;10.746;2024-01-30T13:56:01;7.20;;;6.70;;
10013;SDS011;45684;48.358;10.746;2024-01-30T13:58:30;7.03;;;6.40;;
10013;SDS011;45684;48.358;10.746;2024-01-30T14:01:00;6.87;;;6.37;;
10013;SDS011;45684;48.358;10.746;2024-01-30T14:03:28;7.10;;;6.60;;
10013;SDS011;45684;48.358;10.746;2024-01-30T14:05:56;7.20;;;6.70;;
10013;SDS011;45684;48.358;10.746;2024-01-30T14:08:24;6.90;;;6.40;;
10013;SDS011;45684;48.358;10.746;2024-01-30T14:10:54;8.20;;;7.60;;
10013;SDS011;45684;48.358;10.746;2024-01-30T14:13:22;7.53;;;6.90;;
10013;SDS011;45684;48.358;10.746;2024-01-30T14:15:53;7.30;;;6.80;;